Time;durP1;ratioP1;P1;durP2;ratioP2;P2;SDS_P1;SDS_P2;PMS_P1;PMS_P2;Temp;Humidity;BMP_temperature;BMP_pressure;BME280_temperature;BME280_humidity;BME280_pressure;Samples;Min_cycle;Max_cycle;Signal;HPM_P1;HPM_P2
2022/12/28 00:02:05;;;;;;;5.93;2.47;;;;;;;4.96;87.21;100476.75;5102930;28;20479;-62
2022/12/28 00:04:32;;;;;;;7.03;2.37;;;;;;;5.02;87.13;100480.81;5103603;28;20508;-61
2022/12/28 00:06:58;;;;;;;5.90;2.60;;;;;;;5.02;86.98;100457.81;5098035;28;21086;-61
2022/12/28 00:09:25;;;;;;;5.90;3.40;;;;;;;5.07;87.12;100458.38;5099614;28;20447;-62
2022/12/28 00:11:52;;;;;;;4.30;1.97;;;;;;;5.03;87.02;100456.00;5101649;28;20502;-62
2022/12/28 00:14:19;;;;;;;5.60;2.30;;;;;;;5.04;87.05;100447.13;5102520;28;20462;-62
2022/12/28 00:16:45;;;;;;;3.60;2.20;;;;;;;4.99;87.30;100455.34;5102338;28;20483;-62
2022/12/28 00:19:15;;;;;;;7.63;2.30;;;;;;;5.02;87.26;100443.72;5102262;28;20446;-60
2022/12/28 00:21:42;;;;;;;6.27;2.53;;;;;;;5.04;87.25;100432.06;5101934;28;20536;-60
2022/12/28 00:24:18;;;;;;;3.77;2.27;;;;;;;5.13;86.71;100437.72;5101482;28;20468;-60
2022/12/28 00:26:45;;;;;;;7.40;2.20;;;;;;;5.20;86.52;100433.69;5093916;28;20482;-60
2022/12/28 00:29:12;;;;;;;4.70;2.07;;;;;;;5.25;86.29;100431.59;5102770;28;20990;-60
2022/12/28 00:31:38;;;;;;;3.57;2.33;;;;;;;5.26;86.57;100428.84;5103101;28;21159;-60
2022/12/28 00:34:05;;;;;;;8.27;2.10;;;;;;;5.17;86.59;100415.34;5103331;28;20497;-61
2022/12/28 00:36:34;;;;;;;4.90;2.20;;;;;;;5.16;86.58;100406.56;5102200;28;20470;-62
2022/12/28 00:39:01;;;;;;;4.33;1.93;;;;;;;5.21;86.11;100399.16;5102702;28;20483;-61
2022/12/28 00:41:27;;;;;;;6.03;2.40;;;;;;;5.28;85.91;100400.44;5102651;28;20705;-62
2022/12/28 00:43:54;;;;;;;4.90;2.27;;;;;;;5.34;85.68;100395.66;5096201;28;20459;-61
2022/12/28 00:46:21;;;;;;;4.83;1.70;;;;;;;5.35;85.85;100392.06;5080582;28;20511;-62
2022/12/28 00:48:48;;;;;;;5.20;2.27;;;;;;;5.28;85.61;100381.88;5086870;28;20452;-62
2022/12/28 00:51:17;;;;;;;6.37;2.63;;;;;;;5.37;85.39;100379.56;5091625;28;20533;-62
2022/12/28 00:53:45;;;;;;;4.33;2.00;;;;;;;5.40;85.62;100374.91;5100541;28;20436;-62
2022/12/28 00:56:14;;;;;;;3.73;1.93;;;;;;;5.41;85.57;100359.81;5060732;28;20503;-62
2022/12/28 00:58:41;;;;;;;10.90;2.00;;;;;;;5.44;85.65;100364.94;5084401;28;20463;-62
2022/12/28 01:01:13;;;;;;;3.23;1.83;;;;;;;5.38;85.73;100349.44;5102138;28;20471;-62
2022/12/28 01:03:40;;;;;;;5.40;2.40;;;;;;;5.36;85.66;100338.91;5102556;28;20447;-61
2022/12/28 01:06:07;;;;;;;4.80;1.83;;;;;;;5.43;85.59;100342.00;5081007;28;20491;-61
2022/12/28 01:08:35;;;;;;;6.40;2.20;;;;;;;5.41;85.46;100347.41;5075522;28;20437;-61
2022/12/28 01:11:08;;;;;;;5.43;2.17;;;;;;;5.44;85.43;100335.75;5100846;28;20471;-61
2022/12/28 01:13:35;;;;;;;1.90;1.40;;;;;;;5.51;85.42;100350.28;5087318;28;20456;-61
2022/12/28 01:16:10;;;;;;;6.90;2.40;;;;;;;5.44;85.53;100341.06;5084390;28;20478;-61
2022/12/28 01:18:37;;;;;;;5.00;1.77;;;;;;;5.49;85.32;100348.72;5089706;28;20432;-61
2022/12/28 01:21:09;;;;;;;5.47;2.17;;;;;;;5.59;85.17;100347.97;5096935;28;20478;-61
2022/12/28 01:23:35;;;;;;;2.40;1.30;;;;;;;5.50;85.59;100351.22;5102820;28;21018;-61
2022/12/28 01:26:02;;;;;;;5.63;2.23;;;;;;;5.58;85.48;100346.25;5100793;28;20487;-61
2022/12/28 01:28:31;;;;;;;3.60;2.00;;;;;;;5.54;85.87;100334.19;5101831;28;20519;-60
2022/12/28 01:30:57;;;;;;;4.37;1.60;;;;;;;5.64;85.33;100335.22;5097755;28;20591;-60
2022/12/28 01:33:24;;;;;;;5.57;1.97;;;;;;;5.56;85.41;100334.06;5102157;28;20473;-60
2022/12/28 01:35:51;;;;;;;3.77;2.30;;;;;;;5.68;85.29;100321.72;5101392;28;20475;-60
2022/12/28 01:38:17;;;;;;;8.23;2.03;;;;;;;5.74;84.87;100321.31;5101021;28;20536;-60
2022/12/28 01:40:44;;;;;;;3.73;1.60;;;;;;;5.64;85.56;100321.09;5101042;28;20479;-60
2022/12/28 01:43:13;;;;;;;2.60;1.83;;;;;;;5.70;85.10;100311.88;5101402;28;20485;-60
2022/12/28 01:45:42;;;;;;;8.00;3.50;;;;;;;5.76;85.32;100308.78;5100037;28;21059;-60
2022/12/28 01:48:17;;;;;;;9.00;2.00;;;;;;;5.77;85.27;100298.06;5101498;28;20452;-60
2022/12/28 01:50:44;;;;;;;5.73;1.70;;;;;;;5.71;85.47;100308.25;5099730;28;20469;-60
2022/12/28 01:53:11;;;;;;;4.53;2.03;;;;;;;5.72;85.55;100302.84;5102306;28;20439;-61
2022/12/28 01:55:40;;;;;;;4.77;1.90;;;;;;;5.85;86.37;100301.03;5099384;28;20467;-61
2022/12/28 01:58:10;;;;;;;4.13;2.10;;;;;;;5.71;88.22;100295.88;5101237;28;20455;-61
2022/12/28 02:00:37;;;;;;;3.60;1.70;;;;;;;5.53;90.07;100297.16;5101705;28;20474;-61
2022/12/28 02:03:07;;;;;;;7.80;1.87;;;;;;;5.59;91.61;100288.75;5102066;28;21041;-61
2022/12/28 02:05:37;;;;;;;4.37;1.87;;;;;;;5.45;91.87;100287.94;5100653;28;20499;-61
2022/12/28 02:08:06;;;;;;;3.57;2.10;;;;;;;5.52;92.28;100279.53;5101321;28;20423;-61
2022/12/28 02:10:33;;;;;;;3.17;2.13;;;;;;;5.52;93.21;100275.09;5101377;28;20470;-61
2022/12/28 02:13:00;;;;;;;2.70;1.73;;;;;;;5.53;93.69;100275.94;5100515;28;20459;-61
2022/12/28 02:15:27;;;;;;;2.37;2.13;;;;;;;5.51;94.38;100267.25;5100111;28;21882;-61
2022/12/28 02:17:54;;;;;;;9.67;2.30;;;;;;;5.52;94.97;100272.44;5100580;28;20954;-61
2022/12/28 02:20:23;;;;;;;3.13;2.20;;;;;;;5.50;95.43;100265.53;5100491;28;20447;-61
2022/12/28 02:23:13;;;;;;;2.50;2.07;;;;;;;5.37;96.38;100266.41;5101597;28;20454;-61
2022/12/28 02:25:58;;;;;;;2.80;1.90;;;;;;;5.36;96.54;100243.47;5099763;28;20957;-61
2022/12/28 02:28:45;;;;;;;3.10;1.90;;;;;;;5.38;97.42;100223.03;5074093;28;20449;-61
2022/12/28 02:31:15;;;;;;;3.60;2.27;;;;;;;5.40;96.89;100231.72;5098017;28;20486;-61
2022/12/28 02:33:45;;;;;;;3.70;2.13;;;;;;;5.43;96.86;100238.59;5100883;28;20470;-61
2022/12/28 02:36:15;;;;;;;4.40;2.00;;;;;;;5.48;96.28;100239.13;5100454;28;20493;-61
2022/12/28 02:38:45;;;;;;;4.83;1.93;;;;;;;5.60;96.06;100227.66;5100265;28;20487;-61
2022/12/28 02:41:14;;;;;;;6.03;2.77;;;;;;;5.46;96.28;100218.03;5099910;28;20536;-61
2022/12/28 02:43:41;;;;;;;2.30;2.00;;;;;;;5.61;96.10;100223.22;5100007;28;20459;-61
2022/12/28 02:52:01;;;;;;;7.57;2.23;;;;;;;5.62;95.59;100195.72;5097991;28;20471;-60
2022/12/28 02:57:41;;;;;;;8.10;2.97;;;;;;;5.51;98.09;100185.03;5099490;28;20502;-61
2022/12/28 03:00:10;;;;;;;4.83;2.17;;;;;;;5.47;98.85;100182.59;5100485;28;20469;-60
2022/12/28 03:02:51;;;;;;;4.27;2.40;;;;;;;5.58;99.24;100173.88;5081429;28;20436;-60
2022/12/28 03:08:13;;;;;;;8.10;3.10;;;;;;;5.41;99.69;100130.00;5096737;28;20744;-60
2022/12/28 03:08:18;;;;;;;3.10;2.17;;;;;;;5.56;99.91;100151.09;5099971;28;20878;-60
2022/12/28 03:10:51;;;;;;;3.70;2.03;;;;;;;5.62;99.87;100134.72;5099674;28;20505;-60
2022/12/28 03:16:05;;;;;;;5.33;2.57;;;;;;;5.65;99.61;100122.06;5108425;28;20475;-60
2022/12/28 03:32:25;;;;;;;5.83;2.23;;;;;;;5.72;97.88;100066.78;5103099;28;20485;-60
2022/12/28 03:34:53;;;;;;;2.60;2.00;;;;;;;5.89;97.20;100067.34;5103682;28;20489;-61
2022/12/28 03:37:24;;;;;;;4.63;2.23;;;;;;;5.93;96.79;100063.47;5102828;28;20525;-60
2022/12/28 03:39:54;;;;;;;2.70;2.17;;;;;;;5.92;96.41;100059.13;5094175;28;20483;-60
2022/12/28 03:45:16;;;;;;;2.23;1.90;;;;;;;6.05;95.60;100067.88;5103282;28;20787;-60
2022/12/28 03:47:44;;;;;;;4.57;2.67;;;;;;;6.08;95.37;100054.41;5101440;28;20503;-60
2022/12/28 03:50:13;;;;;;;2.50;1.70;;;;;;;6.09;95.16;100047.28;5082826;28;20500;-60
2022/12/28 03:52:39;;;;;;;2.03;1.80;;;;;;;6.14;94.69;100026.53;5083606;28;20444;-60
2022/12/28 03:55:07;;;;;;;3.60;1.97;;;;;;;6.25;94.52;100041.63;5091444;28;20825;-60
2022/12/28 03:57:33;;;;;;;4.13;2.50;;;;;;;6.27;94.45;100035.25;5103636;28;20459;-60
2022/12/28 04:00:00;;;;;;;5.17;2.10;;;;;;;6.20;94.24;100018.94;5083238;28;20479;-61
2022/12/28 04:02:26;;;;;;;4.00;2.60;;;;;;;6.36;93.94;100023.06;5099273;28;20475;-60
2022/12/28 04:04:53;;;;;;;5.07;2.47;;;;;;;6.35;93.81;100024.91;5102878;28;20960;-61
2022/12/28 04:07:21;;;;;;;2.70;1.90;;;;;;;6.48;93.40;100011.50;5103273;28;20964;-61
2022/12/28 04:09:48;;;;;;;3.37;2.30;;;;;;;6.43;93.46;100024.28;5095231;28;20471;-61
2022/12/28 04:12:15;;;;;;;2.63;2.40;;;;;;;6.48;93.50;99976.13;5087169;28;20486;-61
2022/12/28 04:14:41;;;;;;;7.37;2.10;;;;;;;6.60;93.06;100007.03;5084526;28;20448;-61
2022/12/28 04:17:08;;;;;;;1.90;1.70;;;;;;;6.64;93.21;100008.47;5083923;28;20529;-61
2022/12/28 04:19:35;;;;;;;4.87;2.10;;;;;;;6.56;92.86;99987.84;5093351;28;20443;-61
2022/12/28 04:22:01;;;;;;;3.03;1.93;;;;;;;6.58;93.35;100001.84;5103061;28;20478;-61
2022/12/28 04:24:29;;;;;;;2.17;1.40;;;;;;;6.67;92.88;99991.47;5101937;28;20447;-61
2022/12/28 04:26:56;;;;;;;2.43;1.70;;;;;;;6.66;93.17;99995.06;5102245;28;20533;-61
2022/12/28 04:29:23;;;;;;;1.87;1.77;;;;;;;6.70;93.79;99973.47;5101257;28;20455;-61
2022/12/28 04:31:50;;;;;;;3.10;2.00;;;;;;;6.63;95.41;99974.91;5101626;28;20463;-61
2022/12/28 04:34:16;;;;;;;2.70;1.77;;;;;;;6.46;98.06;99975.38;5102416;28;21042;-61
2022/12/28 04:36:43;;;;;;;2.43;1.60;;;;;;;6.41;99.76;99978.41;5101748;28;20479;-61
2022/12/28 04:39:10;;;;;;;3.77;2.23;;;;;;;6.41;100.00;99978.41;5102079;28;20770;-61
2022/12/28 04:41:39;;;;;;;3.13;2.13;;;;;;;6.35;100.00;99976.22;5102679;28;20471;-61
2022/12/28 04:44:06;;;;;;;4.10;2.40;;;;;;;6.35;100.00;99974.44;5101796;28;20460;-61
2022/12/28 04:46:33;;;;;;;2.70;1.77;;;;;;;6.45;100.00;99960.44;5101831;28;20479;-61
2022/12/28 04:49:00;;;;;;;3.73;2.17;;;;;;;6.47;99.70;99951.38;5101880;28;20440;-61
2022/12/28 04:51:28;;;;;;;4.17;3.60;;;;;;;6.65;98.59;99951.72;5073682;28;20469;-61
2022/12/28 04:53:55;;;;;;;3.30;2.20;;;;;;;6.64;98.19;99942.06;5075806;28;20483;-61
2022/12/28 04:56:23;;;;;;;3.00;2.10;;;;;;;6.66;98.36;99944.59;5080718;28;20503;-61
2022/12/28 04:58:55;;;;;;;2.10;1.90;;;;;;;6.63;98.33;99923.59;5084922;28;20476;-60
2022/12/28 05:01:22;;;;;;;2.60;1.73;;;;;;;6.56;98.45;99913.47;5097428;28;20475;-61
2022/12/28 05:03:49;;;;;;;3.80;1.97;;;;;;;6.53;99.19;99921.69;5102020;28;20991;-61
2022/12/28 05:06:17;;;;;;;4.03;2.23;;;;;;;6.63;99.94;99934.22;5100724;28;20492;-61
2022/12/28 05:08:45;;;;;;;2.73;1.87;;;;;;;6.59;99.86;99926.47;5073405;28;20479;-60
2022/12/28 05:11:14;;;;;;;3.63;2.03;;;;;;;6.63;99.40;99929.75;5100823;28;20757;-60
2022/12/28 05:13:40;;;;;;;2.17;1.80;;;;;;;6.66;99.08;99933.97;5101568;28;20463;-60
2022/12/28 05:16:10;;;;;;;3.77;2.10;;;;;;;6.72;98.89;99928.19;5101330;28;20511;-66
2022/12/28 05:18:37;;;;;;;7.23;2.37;;;;;;;6.75;98.66;99923.47;5101929;28;20443;-67
2022/12/28 05:21:05;;;;;;;3.93;2.70;;;;;;;6.86;98.53;99924.41;5100934;28;20495;-68
2022/12/28 05:23:33;;;;;;;3.10;2.20;;;;;;;6.76;99.17;99926.94;5103297;28;20427;-68
2022/12/28 05:26:00;;;;;;;4.53;2.70;;;;;;;6.89;99.97;99930.31;5100692;28;20507;-68
2022/12/28 05:28:27;;;;;;;4.47;2.00;;;;;;;6.67;100.00;99919.72;5101671;28;20486;-68
2022/12/28 05:30:59;;;;;;;3.97;2.03;;;;;;;6.69;100.00;99931.91;5085341;28;20468;-68
2022/12/28 05:33:28;;;;;;;4.10;2.30;;;;;;;6.58;100.00;99937.25;5084098;28;20467;-68
2022/12/28 05:35:55;;;;;;;4.83;2.07;;;;;;;6.56;100.00;99924.09;5088126;28;20468;-67
2022/12/28 05:38:22;;;;;;;3.90;2.20;;;;;;;6.47;100.00;99934.59;5083736;28;20469;-67
2022/12/28 05:40:49;;;;;;;4.70;1.97;;;;;;;6.44;100.00;99924.22;5081422;28;20488;-68
2022/12/28 05:43:16;;;;;;;3.40;2.30;;;;;;;6.34;100.00;99913.50;5080945;28;20449;-68
2022/12/28 05:45:42;;;;;;;3.70;2.20;;;;;;;6.47;100.00;99930.13;5079447;28;20496;-68
2022/12/28 05:48:09;;;;;;;2.30;2.07;;;;;;;6.38;100.00;99931.69;5087758;28;20435;-68
2022/12/28 05:50:37;;;;;;;3.30;2.10;;;;;;;6.39;100.00;99928.09;5080500;28;20476;-68
2022/12/28 05:53:04;;;;;;;3.03;2.70;;;;;;;6.39;100.00;99933.41;5062118;28;20441;-67
2022/12/28 05:55:31;;;;;;;8.27;2.23;;;;;;;6.29;100.00;99924.47;5072005;28;20479;-67
2022/12/28 05:57:57;;;;;;;3.10;2.80;;;;;;;6.25;100.00;99925.69;5081151;28;20457;-68
2022/12/28 06:00:24;;;;;;;4.23;2.67;;;;;;;6.29;100.00;99911.19;5098905;28;20466;-68
2022/12/28 06:02:51;;;;;;;6.33;2.73;;;;;;;6.35;100.00;99908.06;5090274;28;20459;-68
2022/12/28 06:05:17;;;;;;;5.50;2.20;;;;;;;6.33;100.00;99919.75;5079040;28;20487;-68
2022/12/28 06:07:45;;;;;;;3.27;2.70;;;;;;;6.32;100.00;99912.75;5081085;28;20460;-68
2022/12/28 06:10:12;;;;;;;3.43;3.00;;;;;;;6.31;100.00;99906.59;5079649;28;20449;-68
2022/12/28 06:12:39;;;;;;;6.77;2.97;;;;;;;6.43;100.00;99904.78;5080542;28;20453;-68
2022/12/28 06:15:06;;;;;;;2.50;2.30;;;;;;;6.37;100.00;99894.63;5060596;28;20472;-68
2022/12/28 06:17:33;;;;;;;3.17;2.70;;;;;;;6.36;100.00;99912.41;5091181;28;20463;-67
2022/12/28 06:20:00;;;;;;;7.10;2.60;;;;;;;6.45;100.00;99907.31;5099877;28;20528;-67
2022/12/28 06:22:28;;;;;;;3.27;1.90;;;;;;;6.57;100.00;99906.34;5078517;28;20483;-68
2022/12/28 06:24:56;;;;;;;4.90;2.53;;;;;;;6.52;100.00;99900.56;5084320;28;20451;-67
2022/12/28 06:27:23;;;;;;;10.27;2.33;;;;;;;6.46;100.00;99883.31;5099544;28;20498;-67
2022/12/28 06:29:49;;;;;;;6.87;3.60;;;;;;;6.58;100.00;99884.97;5092622;28;20459;-67
2022/12/28 06:32:16;;;;;;;5.70;2.80;;;;;;;6.49;100.00;99887.50;5084609;28;20495;-68
2022/12/28 06:34:43;;;;;;;4.03;2.40;;;;;;;6.58;100.00;99897.41;5079972;28;20556;-67
2022/12/28 06:37:09;;;;;;;2.70;2.50;;;;;;;6.62;100.00;99879.41;5075138;28;20480;-67
2022/12/28 06:39:36;;;;;;;2.87;2.57;;;;;;;6.67;100.00;99882.53;5082641;28;20526;-67
2022/12/28 06:42:05;;;;;;;5.27;2.97;;;;;;;6.63;100.00;99895.22;5079877;28;20506;-66
2022/12/28 06:44:31;;;;;;;3.67;2.70;;;;;;;6.66;100.00;99891.47;5079320;28;20706;-66
2022/12/28 06:46:58;;;;;;;5.37;3.60;;;;;;;6.71;100.00;99883.97;5087521;28;21012;-66
2022/12/28 06:49:25;;;;;;;6.87;3.43;;;;;;;6.69;100.00;99881.44;5099227;28;20423;-67
2022/12/28 06:51:51;;;;;;;3.33;3.00;;;;;;;6.69;100.00;99891.22;5099796;28;20478;-67
2022/12/28 06:54:18;;;;;;;3.13;2.40;;;;;;;6.77;100.00;99894.09;5082240;28;20452;-66
2022/12/28 06:56:45;;;;;;;2.63;2.43;;;;;;;6.72;100.00;99889.16;5079932;28;20496;-65
2022/12/28 06:59:14;;;;;;;5.47;3.13;;;;;;;6.78;100.00;99886.00;5079848;28;20486;-66
2022/12/28 07:01:43;;;;;;;5.00;3.30;;;;;;;6.75;100.00;99890.72;5082920;28;20561;-65
2022/12/28 07:04:10;;;;;;;9.90;3.23;;;;;;;6.86;100.00;99898.66;5085016;28;20441;-65
2022/12/28 07:06:39;;;;;;;4.53;3.20;;;;;;;6.83;100.00;99892.75;5078933;28;20545;-65
2022/12/28 07:09:08;;;;;;;8.00;3.03;;;;;;;6.88;100.00;99885.25;5083794;28;20557;-65
2022/12/28 07:11:35;;;;;;;3.23;2.93;;;;;;;6.86;100.00;99876.56;5088004;28;21088;-65
2022/12/28 07:14:01;;;;;;;4.40;3.30;;;;;;;6.94;100.00;99879.41;5078849;28;20456;-65
2022/12/28 07:16:30;;;;;;;5.90;2.83;;;;;;;6.93;100.00;99875.94;5085077;28;20464;-65
2022/12/28 07:18:58;;;;;;;3.07;2.40;;;;;;;6.98;100.00;99886.19;5101010;28;20440;-65
2022/12/28 07:21:27;;;;;;;3.77;2.93;;;;;;;7.07;100.00;99884.59;5098685;28;20472;-65
2022/12/28 07:23:55;;;;;;;5.07;2.73;;;;;;;7.05;100.00;99879.41;5098916;28;20458;-65
2022/12/28 07:26:23;;;;;;;3.27;2.70;;;;;;;7.01;100.00;99883.25;5098637;28;20507;-66
2022/12/28 07:28:51;;;;;;;3.43;3.00;;;;;;;7.02;100.00;99878.81;5099714;28;20494;-65
2022/12/28 07:31:20;;;;;;;3.30;2.60;;;;;;;7.11;100.00;99875.38;5098392;28;20972;-66
2022/12/28 07:33:49;;;;;;;5.27;2.80;;;;;;;7.17;100.00;99880.19;5088704;28;20460;-65
2022/12/28 07:36:17;;;;;;;3.03;2.50;;;;;;;7.05;100.00;99876.72;5077711;28;20499;-65
2022/12/28 07:38:44;;;;;;;4.33;2.97;;;;;;;7.13;100.00;99873.44;5092036;28;20484;-65
2022/12/28 07:41:13;;;;;;;2.57;2.33;;;;;;;7.23;100.00;99874.34;5079578;28;20468;-66
2022/12/28 07:43:40;;;;;;;2.60;2.40;;;;;;;7.12;100.00;99887.72;5078632;28;20540;-66
2022/12/28 07:46:08;;;;;;;3.77;2.43;;;;;;;7.13;100.00;99879.59;5076830;28;20510;-65
2022/12/28 07:48:36;;;;;;;3.90;2.57;;;;;;;7.10;100.00;99877.19;5080943;28;20428;-65
2022/12/28 07:51:09;;;;;;;4.23;2.40;;;;;;;7.14;100.00;99865.31;5098270;28;20500;-66
2022/12/28 07:53:38;;;;;;;4.03;2.80;;;;;;;7.24;100.00;99885.81;5089792;28;20577;-65
2022/12/28 07:56:05;;;;;;;2.70;2.50;;;;;;;7.30;100.00;99887.97;5081155;28;20497;-65
2022/12/28 07:58:32;;;;;;;2.60;2.40;;;;;;;7.31;100.00;99879.88;5080040;28;20878;-65
2022/12/28 08:01:06;;;;;;;2.57;2.37;;;;;;;7.31;100.00;99879.88;5095635;28;20467;-65
2022/12/28 08:03:33;;;;;;;2.60;2.40;;;;;;;7.44;100.00;99881.50;5090578;28;20447;-65
2022/12/28 08:06:05;;;;;;;2.67;2.47;;;;;;;7.44;100.00;99882.34;5081967;28;20484;-65
2022/12/28 08:08:34;;;;;;;2.53;2.27;;;;;;;7.43;100.00;99875.34;5082568;28;20479;-66
2022/12/28 08:11:03;;;;;;;2.33;2.00;;;;;;;7.51;100.00;99878.19;5086139;28;20503;-65
2022/12/28 08:13:31;;;;;;;4.13;2.17;;;;;;;7.48;100.00;99880.25;5076862;28;20494;-66
2022/12/28 08:15:58;;;;;;;1.73;1.53;;;;;;;7.52;100.00;99863.09;5084681;28;20497;-66
2022/12/28 08:18:25;;;;;;;3.47;2.07;;;;;;;7.44;100.00;99853.06;5092849;28;20448;-65
2022/12/28 08:20:51;;;;;;;2.43;2.20;;;;;;;7.59;100.00;99866.91;5088222;28;20532;-66
2022/12/28 08:23:18;;;;;;;2.63;2.43;;;;;;;7.63;100.00;99870.97;5089735;28;20754;-66
2022/12/28 08:25:46;;;;;;;1.93;1.73;;;;;;;7.67;100.00;99868.91;5083923;28;20464;-66
2022/12/28 08:28:13;;;;;;;1.50;1.40;;;;;;;7.71;100.00;99865.84;5085200;28;20488;-66
2022/12/28 08:30:40;;;;;;;2.07;1.80;;;;;;;7.68;100.00;99878.56;5068799;28;20494;-66
2022/12/28 08:33:07;;;;;;;2.67;1.80;;;;;;;7.76;100.00;99875.25;5087978;28;20453;-66
2022/12/28 08:35:33;;;;;;;2.57;2.10;;;;;;;7.66;100.00;99881.38;5082819;28;20947;-63
2022/12/28 08:38:00;;;;;;;2.73;1.80;;;;;;;7.71;100.00;99873.84;5084421;28;20459;-63
2022/12/28 08:40:28;;;;;;;2.00;1.80;;;;;;;7.77;100.00;99872.44;5091465;28;20456;-63
2022/12/28 08:42:58;;;;;;;1.77;1.67;;;;;;;7.70;100.00;99881.94;5075311;28;20461;-63
2022/12/28 08:45:24;;;;;;;2.00;1.80;;;;;;;7.66;100.00;99884.03;5077834;28;20482;-63
2022/12/28 08:47:51;;;;;;;1.90;1.80;;;;;;;7.76;100.00;99894.72;5097209;28;20471;-63
2022/12/28 08:50:18;;;;;;;2.60;1.80;;;;;;;7.77;100.00;99893.75;5081609;28;20444;-63
2022/12/28 08:52:45;;;;;;;2.20;2.10;;;;;;;7.71;100.00;99886.31;5081919;28;20448;-63
2022/12/28 08:55:12;;;;;;;3.57;2.10;;;;;;;7.61;100.00;99883.56;5086199;28;20453;-63
2022/12/28 08:57:38;;;;;;;2.00;1.90;;;;;;;7.60;100.00;99881.03;5089051;28;20471;-63
2022/12/28 09:00:09;;;;;;;2.30;2.10;;;;;;;7.61;100.00;99890.72;5098840;28;20515;-63
2022/12/28 09:02:36;;;;;;;3.20;1.97;;;;;;;7.63;100.00;99894.09;5094054;28;20506;-63
2022/12/28 09:05:03;;;;;;;1.90;1.80;;;;;;;7.71;100.00;99903.09;5090174;28;20458;-63
2022/12/28 09:07:29;;;;;;;2.50;2.30;;;;;;;7.75;100.00;99894.88;5089957;28;20475;-63
2022/12/28 09:09:56;;;;;;;1.73;1.63;;;;;;;7.65;100.00;99892.13;5084269;28;20490;-63
2022/12/28 09:12:23;;;;;;;2.13;1.90;;;;;;;7.65;100.00;99895.63;5093693;28;20549;-63
2022/12/28 09:14:49;;;;;;;3.93;1.93;;;;;;;7.86;100.00;99897.44;5084153;28;20452;-66
2022/12/28 09:17:17;;;;;;;2.27;2.07;;;;;;;7.86;100.00;99892.97;5083035;28;20480;-62
2022/12/28 09:19:44;;;;;;;2.20;2.10;;;;;;;7.88;100.00;99896.34;5084881;28;20444;-80
2022/12/28 09:22:11;;;;;;;2.13;2.00;;;;;;;7.86;100.00;99900.97;5076086;28;20480;-63
2022/12/28 09:24:38;;;;;;;2.20;2.00;;;;;;;7.87;100.00;99899.97;5083790;28;21672;-63
2022/12/28 09:27:05;;;;;;;6.47;2.13;;;;;;;7.80;100.00;99892.66;5087220;28;20507;-64
2022/12/28 09:29:31;;;;;;;4.07;2.80;;;;;;;7.91;100.00;99908.53;5082972;28;20487;-63
2022/12/28 09:32:00;;;;;;;2.73;2.27;;;;;;;8.00;100.00;99906.88;5081351;28;20476;-63
2022/12/28 09:34:28;;;;;;;4.30;2.63;;;;;;;8.02;100.00;99899.59;5081532;28;20444;-63
2022/12/28 09:36:55;;;;;;;2.37;2.20;;;;;;;8.06;100.00;99899.22;5082452;28;20476;-64
2022/12/28 09:39:23;;;;;;;2.30;2.10;;;;;;;8.02;100.00;99905.78;5069898;28;20489;-64
2022/12/28 09:41:52;;;;;;;2.30;2.20;;;;;;;8.03;100.00;99895.97;5056968;28;20872;-63
2022/12/28 09:44:38;;;;;;;2.53;2.33;;;;;;;7.96;100.00;99902.81;5066417;28;20974;-64
2022/12/28 09:47:12;;;;;;;2.70;2.50;;;;;;;7.96;100.00;99895.66;5051273;28;20766;-63
2022/12/28 09:49:44;;;;;;;2.50;2.30;;;;;;;8.07;100.00;99900.06;5072809;28;20440;-63
2022/12/28 09:52:27;;;;;;;2.97;2.67;;;;;;;8.10;100.00;99894.47;5059572;28;20486;-64
2022/12/28 09:54:54;;;;;;;2.60;2.40;;;;;;;7.90;100.00;99883.75;5059864;28;20520;-63
2022/12/28 09:57:22;;;;;;;2.67;2.47;;;;;;;7.88;100.00;99890.16;5061707;28;20942;-63
2022/12/28 09:59:49;;;;;;;2.80;2.60;;;;;;;7.83;100.00;99893.22;5074472;28;20457;-63
2022/12/28 10:02:19;;;;;;;2.97;2.60;;;;;;;7.88;100.00;99891.03;5060494;28;20501;-63
2022/12/28 10:04:49;;;;;;;3.10;2.90;;;;;;;7.88;100.00;99887.50;5072047;28;20448;-64
2022/12/28 10:07:16;;;;;;;3.80;3.50;;;;;;;7.87;100.00;99889.31;5080489;28;20488;-63
2022/12/28 10:09:43;;;;;;;2.97;2.77;;;;;;;8.00;100.00;99888.25;5080573;28;20471;-63
2022/12/28 10:12:14;;;;;;;2.70;2.50;;;;;;;7.80;100.00;99871.38;5066594;28;20508;-66
2022/12/28 10:14:41;;;;;;;2.83;2.63;;;;;;;8.00;100.00;99867.81;5059217;28;20693;-64
2022/12/28 10:17:09;;;;;;;3.73;3.23;;;;;;;7.87;100.00;99870.69;5075400;28;20476;-64
2022/12/28 10:19:36;;;;;;;2.90;2.70;;;;;;;8.03;100.00;99864.88;5077094;28;20445;-66
2022/12/28 10:22:06;;;;;;;2.93;2.73;;;;;;;7.99;100.00;99871.44;5079056;28;20486;-64
2022/12/28 10:24:33;;;;;;;2.90;2.57;;;;;;;8.00;100.00;99862.50;5081083;28;20727;-65
2022/12/28 10:27:03;;;;;;;3.37;3.07;;;;;;;8.02;100.00;99855.22;5069714;28;20488;-64
2022/12/28 10:29:32;;;;;;;3.20;3.00;;;;;;;7.97;100.00;99848.59;5070040;28;20860;-64
2022/12/28 10:32:01;;;;;;;2.90;2.70;;;;;;;7.98;100.00;99847.63;5059540;28;20477;-65
2022/12/28 10:34:29;;;;;;;2.90;2.60;;;;;;;7.96;100.00;99845.09;5079999;28;20460;-64
2022/12/28 10:37:03;;;;;;;3.53;3.03;;;;;;;8.03;100.00;99850.72;5067117;28;20487;-65
2022/12/28 10:39:33;;;;;;;3.00;2.60;;;;;;;7.91;100.00;99834.84;5074588;28;20915;-64
2022/12/28 10:42:00;;;;;;;3.37;2.83;;;;;;;7.99;100.00;99839.50;5099495;28;20495;-65
2022/12/28 10:44:29;;;;;;;4.07;3.03;;;;;;;8.08;100.00;99849.34;5099626;28;20464;-64
2022/12/28 10:46:58;;;;;;;3.47;3.17;;;;;;;8.10;100.00;99849.22;5099910;28;20474;-64
2022/12/28 10:49:25;;;;;;;4.17;3.30;;;;;;;8.12;100.00;99833.94;5099836;28;20486;-64
2022/12/28 10:52:18;;;;;;;3.33;3.13;;;;;;;8.13;100.00;99826.81;5099019;28;20528;-64
2022/12/28 10:54:47;;;;;;;2.60;2.40;;;;;;;8.17;100.00;99834.38;5098565;28;20476;-64
2022/12/28 10:57:17;;;;;;;2.70;2.50;;;;;;;8.35;100.00;99828.38;5098541;28;20471;-61
2022/12/28 10:59:45;;;;;;;4.10;2.90;;;;;;;8.18;100.00;99822.75;5099697;28;20451;-61
2022/12/28 11:02:24;;;;;;;3.43;3.07;;;;;;;8.17;100.00;99815.72;5099523;28;20471;-61
2022/12/28 11:04:56;;;;;;;3.40;3.20;;;;;;;8.14;100.00;99826.66;5099151;28;20843;-62
2022/12/28 11:07:31;;;;;;;3.70;2.60;;;;;;;8.14;100.00;99815.16;5091525;28;20512;-61
2022/12/28 11:10:25;;;;;;;4.23;3.70;;;;;;;8.14;100.00;99817.81;5081229;28;20444;-62
2022/12/28 11:12:54;;;;;;;3.80;3.50;;;;;;;8.13;100.00;99817.00;5078138;28;20464;-62
2022/12/28 11:15:23;;;;;;;3.80;3.50;;;;;;;8.08;100.00;99812.06;5097265;28;20466;-61
2022/12/28 11:17:54;;;;;;;7.00;3.90;;;;;;;8.07;100.00;99807.72;5088875;28;20441;-61
2022/12/28 11:20:25;;;;;;;3.70;3.43;;;;;;;8.20;100.00;99803.97;5073481;28;20758;-61
2022/12/28 11:22:52;;;;;;;4.57;3.87;;;;;;;8.32;100.00;99802.88;5079528;28;20474;-61
2022/12/28 11:25:29;;;;;;;4.40;4.00;;;;;;;8.44;100.00;99806.31;5077893;28;21021;-61
2022/12/28 11:27:56;;;;;;;4.13;3.60;;;;;;;8.36;100.00;99798.97;5077182;28;20487;-61
2022/12/28 11:30:23;;;;;;;6.07;3.90;;;;;;;8.37;100.00;99799.81;5084759;28;20435;-61
2022/12/28 11:32:52;;;;;;;4.20;3.87;;;;;;;8.52;100.00;99793.13;5079159;28;20483;-61
2022/12/28 11:35:21;;;;;;;4.67;3.47;;;;;;;8.52;100.00;99790.47;5082932;28;20433;-61
2022/12/28 11:37:52;;;;;;;3.90;3.50;;;;;;;8.42;100.00;99793.13;5085968;28;20563;-62
2022/12/28 11:40:51;;;;;;;4.40;4.00;;;;;;;8.48;100.00;99794.38;5086145;28;20506;-61
2022/12/28 11:44:01;;;;;;;4.23;3.60;;;;;;;8.58;100.00;99786.41;5066095;28;20460;-61
2022/12/28 11:46:42;;;;;;;4.10;3.80;;;;;;;8.52;100.00;99770.97;5095760;28;20486;-61
2022/12/28 11:49:30;;;;;;;3.70;3.40;;;;;;;8.64;100.00;99780.50;5081306;28;20476;-61
2022/12/28 11:52:45;;;;;;;4.07;3.70;;;;;;;8.64;100.00;99765.34;5093033;28;20765;-61
2022/12/28 11:55:43;;;;;;;3.90;3.60;;;;;;;8.85;100.00;99764.38;5091154;28;20448;-62
2022/12/28 11:58:43;;;;;;;3.30;3.00;;;;;;;8.91;100.00;99760.31;5079499;28;20624;-61
2022/12/28 12:01:11;;;;;;;4.00;3.57;;;;;;;8.94;100.00;99760.88;5081372;28;20500;-61
2022/12/28 12:04:10;;;;;;;6.93;4.33;;;;;;;8.99;100.00;99758.63;5080830;28;20447;-62
2022/12/28 12:07:26;;;;;;;3.60;3.30;;;;;;;9.01;100.00;99755.81;5079361;28;21008;-62
2022/12/28 12:10:32;;;;;;;3.80;3.40;;;;;;;9.02;100.00;99744.16;5080728;28;20463;-62
2022/12/28 12:13:00;;;;;;;3.90;3.50;;;;;;;9.06;100.00;99753.53;5057699;28;20491;-62
2022/12/28 12:15:39;;;;;;;4.07;3.67;;;;;;;9.09;100.00;99747.94;5081502;28;20456;-62